Аэропорт
Ханты-Мансийск (USHH)

 USHH / HMA
ЗЦ Екатеринбург
Тюмень (USTV)
Тюмень (USTV)
 61.02850, 69.08610  / 76 ft

 USHH 122200Z 24005MPS 9000 NSC 21/13 Q1007 R24/010060 NOSIG
 TAF USHH 121953Z 1221/1321 23005G14MPS 9999 SCT020 TEMPO 1221/1303 5000 -SHRA FEW004 BKN016CB BECMG 1302/1303 28006G16MPS TEMPO 1303/1318 -SHRA FEW005 BKN016CB BECMG 1310/1312 34005G12MPS
USHH_j_0220
показать схемы
Название сценария Тип сценария Flight Simulator 9 Flight Simulator X Prepar3D v2 Prepar3D v3 Prepar3D v4 Prepar3D v5 xPlane
Khanty-Mansiysk USHH (P3Dv4.4+) бесплатный
Ханты-Мансийск USHH XP Aleksei Nelaev автор бесплатный


2020 © VATRUS division (Privacy Policy)